Time;durP1;ratioP1;P1;durP2;ratioP2;P2;SDS_P1;SDS_P2;PMS_P1;PMS_P2;Temp;Humidity;BMP_temperature;BMP_pressure;BME280_temperature;BME280_humidity;BME280_pressure;Samples;Min_cycle;Max_cycle;Signal;HPM_P1;HPM_P2
2022/07/02 00:00:27;;;;;;;5.20;4.70;;;15.80;99.90;;;;;;5059860;28;20450;-83
2022/07/02 00:03:14;;;;;;;4.67;4.27;;;15.90;99.90;;;;;;5073233;28;20454;-83
2022/07/02 00:06:02;;;;;;;8.43;4.60;;;15.70;99.90;;;;;;5058925;28;20386;-82
2022/07/02 00:08:46;;;;;;;4.30;3.90;;;15.80;99.90;;;;;;5072746;28;20783;-82
2022/07/02 00:11:33;;;;;;;5.17;3.43;;;15.60;99.90;;;;;;5077231;28;20394;-79
2022/07/02 00:14:18;;;;;;;3.87;3.57;;;15.70;99.90;;;;;;5077343;28;20373;-79
2022/07/02 00:17:03;;;;;;;5.97;4.30;;;15.80;99.90;;;;;;5077262;28;20488;-79
2022/07/02 00:19:49;;;;;;;3.77;3.50;;;15.90;99.90;;;;;;5077376;28;20410;-80
2022/07/02 00:22:34;;;;;;;4.90;4.47;;;15.90;99.90;;;;;;5077599;28;20413;-79
2022/07/02 00:25:18;;;;;;;9.57;4.13;;;15.80;99.90;;;;;;5071544;28;20406;-82
2022/07/02 00:28:05;;;;;;;4.33;3.93;;;15.80;99.90;;;;;;5071766;28;20385;-82
2022/07/02 00:30:51;;;;;;;6.53;5.00;;;16.00;99.90;;;;;;5071155;28;20958;-81
2022/07/02 00:33:37;;;;;;;7.00;5.00;;;15.90;99.90;;;;;;5071431;28;20436;-82
2022/07/02 00:36:24;;;;;;;8.73;6.00;;;15.90;99.90;;;;;;5068356;28;20390;-79
2022/07/02 00:39:08;;;;;;;9.43;7.90;;;15.70;99.90;;;;;;5065583;28;20381;-82
2022/07/02 00:41:53;;;;;;;10.80;6.73;;;15.50;99.90;;;;;;5066481;28;20385;-82
2022/07/02 00:44:39;;;;;;;7.53;5.07;;;15.20;99.90;;;;;;5051429;28;20398;-81
2022/07/02 00:47:25;;;;;;;9.80;4.20;;;15.10;99.90;;;;;;5066605;28;20432;-80
2022/07/02 00:50:10;;;;;;;7.70;6.83;;;15.20;99.90;;;;;;5066718;28;20401;-81
2022/07/02 00:52:54;;;;;;;9.60;5.73;;;15.30;99.90;;;;;;5066654;28;20405;-79
2022/07/02 00:55:39;;;;;;;6.23;4.90;;;15.10;99.90;;;;;;5064831;28;20860;-79
2022/07/02 00:58:25;;;;;;;7.03;6.27;;;15.10;99.90;;;;;;5051122;28;20479;-81
2022/07/02 01:01:10;;;;;;;4.97;4.17;;;15.10;99.90;;;;;;5057036;28;20477;-79
2022/07/02 01:03:57;;;;;;;5.03;3.40;;;14.80;99.90;;;;;;5045849;28;20390;-80
2022/07/02 01:06:43;;;;;;;4.50;4.10;;;15.10;99.90;;;;;;5031772;28;20411;-80
2022/07/02 01:12:27;;;;;;;5.20;4.03;;;15.20;99.90;;;;;;5045697;28;20395;-80
2022/07/02 01:15:12;;;;;;;6.03;3.87;;;15.20;99.90;;;;;;5045839;28;20383;-82
2022/07/02 01:17:56;;;;;;;4.77;3.37;;;15.20;99.90;;;;;;5046261;28;20439;-80
2022/07/02 01:20:40;;;;;;;4.40;4.00;;;15.20;99.90;;;;;;5040169;28;20427;-82
2022/07/02 01:23:24;;;;;;;5.40;4.20;;;15.20;99.90;;;;;;5030868;28;20402;-81
2022/07/02 01:26:09;;;;;;;4.80;4.27;;;15.20;99.90;;;;;;5046839;28;20801;-79
2022/07/02 01:28:53;;;;;;;4.10;3.80;;;15.10;99.90;;;;;;5017313;28;20391;-79
2022/07/02 01:31:38;;;;;;;12.90;4.30;;;15.10;99.90;;;;;;5046952;28;20423;-80
2022/07/02 01:34:22;;;;;;;5.37;3.70;;;14.90;99.90;;;;;;5046072;28;20399;-81
2022/07/02 01:37:09;;;;;;;11.13;7.80;;;14.90;99.90;;;;;;5045557;28;20442;-81
2022/07/02 01:39:57;;;;;;;6.20;5.60;;;14.70;99.90;;;;;;5045652;28;20403;-82
2022/07/02 01:42:41;;;;;;;5.37;4.87;;;14.60;99.90;;;;;;5049829;28;20930;-80
2022/07/02 01:45:25;;;;;;;7.00;4.23;;;14.70;99.90;;;;;;5053193;28;20378;-82
2022/07/02 01:48:10;;;;;;;4.53;3.87;;;14.60;99.90;;;;;;5051816;28;20451;-82
2022/07/02 01:50:54;;;;;;;4.37;3.97;;;14.70;99.90;;;;;;5050026;28;20390;-82
2022/07/02 01:53:39;;;;;;;4.73;4.33;;;14.70;99.90;;;;;;5049586;28;20394;-81
2022/07/02 01:56:23;;;;;;;9.20;4.57;;;15.00;99.90;;;;;;5049654;28;20441;-81
2022/07/02 01:59:08;;;;;;;10.10;4.23;;;15.10;99.90;;;;;;5048836;28;20399;-82
2022/07/02 02:01:53;;;;;;;10.70;4.80;;;14.90;99.90;;;;;;5035884;28;20474;-82
2022/07/02 02:04:37;;;;;;;6.40;5.80;;;14.90;99.90;;;;;;5034241;28;20390;-82
2022/07/02 02:07:24;;;;;;;4.13;3.77;;;15.00;99.90;;;;;;5048584;28;20399;-81
2022/07/02 02:10:09;;;;;;;4.50;3.00;;;15.10;99.90;;;;;;5048957;28;20386;-80
2022/07/02 02:12:53;;;;;;;3.80;3.57;;;15.20;99.90;;;;;;5049034;28;20476;-81
2022/07/02 02:15:38;;;;;;;12.40;7.97;;;14.90;99.90;;;;;;5049243;28;20414;-82
2022/07/02 02:18:22;;;;;;;5.07;4.23;;;14.90;99.90;;;;;;5048729;28;20477;-82
2022/07/02 02:21:06;;;;;;;6.67;4.47;;;14.90;99.90;;;;;;5048757;28;20410;-81
2022/07/02 02:23:51;;;;;;;5.13;4.27;;;15.10;99.90;;;;;;5048435;28;20386;-82
2022/07/02 02:26:36;;;;;;;7.20;4.37;;;14.90;99.90;;;;;;5033400;28;20384;-82
2022/07/02 02:29:21;;;;;;;3.87;3.57;;;14.80;99.90;;;;;;5048730;28;20387;-82
2022/07/02 02:32:06;;;;;;;6.77;4.37;;;14.70;99.90;;;;;;5048206;28;20787;-81
2022/07/02 02:34:51;;;;;;;4.73;4.33;;;14.80;99.90;;;;;;5048775;28;20415;-81
2022/07/02 02:37:35;;;;;;;5.13;3.90;;;14.60;99.90;;;;;;5033858;28;20445;-82
2022/07/02 02:40:19;;;;;;;6.27;3.73;;;14.50;99.90;;;;;;5049013;28;20476;-82
2022/07/02 02:43:04;;;;;;;6.43;4.90;;;14.50;99.90;;;;;;5048903;28;20390;-81
2022/07/02 02:45:49;;;;;;;4.47;4.07;;;14.40;99.90;;;;;;5048637;28;20414;-81
2022/07/02 02:48:35;;;;;;;4.87;4.00;;;14.30;99.90;;;;;;5054222;28;20377;-79
2022/07/02 02:51:19;;;;;;;7.47;4.50;;;14.30;99.90;;;;;;5045688;28;20390;-80
2022/07/02 02:54:04;;;;;;;3.90;3.60;;;14.00;99.90;;;;;;5058242;28;20390;-82
2022/07/02 02:56:48;;;;;;;4.13;3.83;;;13.90;99.90;;;;;;5054076;28;20459;-81
2022/07/02 02:59:33;;;;;;;4.40;4.00;;;13.80;99.90;;;;;;5052817;28;20430;-81
2022/07/02 03:02:18;;;;;;;4.27;3.93;;;13.80;99.90;;;;;;5051606;28;20515;-81
2022/07/02 03:05:02;;;;;;;4.67;4.27;;;13.90;99.90;;;;;;5052336;28;20383;-81
2022/07/02 03:07:48;;;;;;;5.20;4.80;;;14.00;99.90;;;;;;5052402;28;20423;-81
2022/07/02 03:10:32;;;;;;;5.67;4.70;;;14.00;99.90;;;;;;5052733;28;20390;-80
2022/07/02 03:13:17;;;;;;;6.57;3.70;;;13.90;99.90;;;;;;5052491;28;20398;-81
2022/07/02 03:16:01;;;;;;;5.37;4.17;;;14.00;99.90;;;;;;5052451;28;20533;-82
2022/07/02 03:18:46;;;;;;;5.70;3.80;;;14.10;99.90;;;;;;5052767;28;20449;-82
2022/07/02 03:21:31;;;;;;;5.83;3.60;;;14.20;99.90;;;;;;5052625;28;20382;-82
2022/07/02 03:24:15;;;;;;;5.90;3.93;;;14.20;99.90;;;;;;5054352;28;20402;-81
2022/07/02 03:27:00;;;;;;;5.43;3.63;;;14.40;99.90;;;;;;5053960;28;20394;-81
2022/07/02 03:29:44;;;;;;;3.83;3.53;;;14.40;99.90;;;;;;5056256;28;20402;-79
2022/07/02 03:32:29;;;;;;;4.30;3.90;;;14.30;99.90;;;;;;5056780;28;20430;-78
2022/07/02 03:35:14;;;;;;;3.80;3.43;;;14.20;99.90;;;;;;5057652;28;20390;-78
2022/07/02 03:38:01;;;;;;;6.17;4.33;;;14.30;99.90;;;;;;5053911;28;20450;-81
2022/07/02 03:40:45;;;;;;;4.00;3.60;;;14.40;99.90;;;;;;5051358;28;20386;-81
2022/07/02 03:43:31;;;;;;;6.83;4.10;;;14.40;99.90;;;;;;5051341;28;20455;-81
2022/07/02 03:46:17;;;;;;;3.50;3.20;;;14.40;99.90;;;;;;5050798;28;20462;-81
2022/07/02 03:49:01;;;;;;;4.00;3.60;;;14.50;99.90;;;;;;5049247;28;20495;-81
2022/07/02 03:51:46;;;;;;;4.83;4.40;;;14.50;99.90;;;;;;5050968;28;20398;-81
2022/07/02 03:54:32;;;;;;;4.27;3.97;;;14.40;99.90;;;;;;5042062;28;20389;-81
2022/07/02 03:57:18;;;;;;;3.83;3.50;;;14.40;99.90;;;;;;5051208;28;20475;-81
2022/07/02 04:00:04;;;;;;;4.43;3.97;;;14.30;99.90;;;;;;5049391;28;20395;-81
2022/07/02 04:02:49;;;;;;;4.17;3.77;;;14.30;99.90;;;;;;5051208;28;20456;-81
2022/07/02 04:05:34;;;;;;;3.50;3.20;;;14.30;99.90;;;;;;5050544;28;20379;-81
2022/07/02 04:08:18;;;;;;;3.50;3.30;;;14.50;99.90;;;;;;5050241;28;20398;-81
2022/07/02 04:11:03;;;;;;;4.73;3.90;;;14.50;99.90;;;;;;5050551;28;20998;-81
2022/07/02 04:13:47;;;;;;;5.20;4.17;;;14.60;99.90;;;;;;5050990;28;20459;-81
2022/07/02 04:16:32;;;;;;;4.13;3.10;;;14.70;99.90;;;;;;5049456;28;20383;-81
2022/07/02 04:19:16;;;;;;;4.70;4.20;;;14.80;99.90;;;;;;5050816;28;20414;-80
2022/07/02 04:22:01;;;;;;;3.90;3.60;;;14.90;99.90;;;;;;5035231;28;20451;-80
2022/07/02 04:24:46;;;;;;;8.13;3.90;;;15.10;99.90;;;;;;5059365;28;20397;-79
2022/07/02 04:27:30;;;;;;;3.73;3.43;;;15.10;99.90;;;;;;5070605;28;20394;-81
2022/07/02 04:30:15;;;;;;;10.50;4.37;;;15.20;99.90;;;;;;5071212;28;20386;-81
2022/07/02 04:32:59;;;;;;;6.37;3.67;;;15.20;99.90;;;;;;5070666;28;20390;-82
2022/07/02 04:35:44;;;;;;;7.10;4.43;;;15.40;99.90;;;;;;5071170;28;20386;-82
2022/07/02 04:38:28;;;;;;;4.33;3.93;;;15.40;99.90;;;;;;5070714;28;20445;-81
2022/07/02 04:41:13;;;;;;;4.00;3.70;;;15.60;99.90;;;;;;5069818;28;20794;-82
2022/07/02 04:43:58;;;;;;;9.00;4.27;;;15.50;99.90;;;;;;5070805;28;20414;-81
2022/07/02 04:46:43;;;;;;;5.43;4.87;;;15.60;99.90;;;;;;5070826;28;20382;-81
2022/07/02 04:49:27;;;;;;;4.83;4.20;;;15.70;99.90;;;;;;5070067;28;20382;-80
2022/07/02 04:52:31;;;;;;;6.40;4.13;;;15.90;99.90;;;;;;5070594;28;20406;-81
2022/07/02 04:55:16;;;;;;;3.70;3.33;;;16.10;99.90;;;;;;5048911;28;20471;-81
2022/07/02 04:58:00;;;;;;;6.40;3.30;;;15.80;99.90;;;;;;5048487;28;20450;-82
2022/07/02 05:00:45;;;;;;;4.40;3.50;;;16.00;99.90;;;;;;5051630;28;20454;-82
2022/07/02 05:03:31;;;;;;;7.30;3.33;;;15.90;99.90;;;;;;5068476;28;20393;-81
2022/07/02 05:06:15;;;;;;;6.43;3.27;;;15.80;99.90;;;;;;5068618;28;20378;-82
2022/07/02 05:09:00;;;;;;;3.93;3.43;;;15.60;99.90;;;;;;5069109;28;20412;-83
2022/07/02 05:11:45;;;;;;;3.93;3.63;;;15.70;99.90;;;;;;5068939;28;20737;-82
2022/07/02 05:14:29;;;;;;;7.00;3.83;;;15.90;99.90;;;;;;5069285;28;20405;-82
2022/07/02 05:17:14;;;;;;;3.33;2.63;;;15.90;99.90;;;;;;5054852;28;20487;-82
2022/07/02 05:19:58;;;;;;;4.33;3.47;;;16.00;99.90;;;;;;5069264;28;20921;-82
2022/07/02 05:22:43;;;;;;;3.87;3.53;;;15.90;99.90;;;;;;5069067;28;20390;-82
2022/07/02 05:25:27;;;;;;;3.87;3.57;;;16.20;99.90;;;;;;5077984;28;20436;-79
2022/07/02 05:28:12;;;;;;;4.60;3.70;;;16.10;99.90;;;;;;5079904;28;20400;-79
2022/07/02 05:30:56;;;;;;;5.60;3.33;;;16.00;99.90;;;;;;5091960;28;20385;-82
2022/07/02 05:33:40;;;;;;;4.07;3.77;;;16.10;99.90;;;;;;5093193;28;20388;-79
2022/07/02 05:36:25;;;;;;;4.17;3.43;;;16.00;99.90;;;;;;5089372;28;20397;-81
2022/07/02 05:39:09;;;;;;;4.77;3.20;;;16.20;99.90;;;;;;5090924;28;20457;-82
2022/07/02 05:41:55;;;;;;;7.53;3.80;;;16.40;99.90;;;;;;5089293;28;20377;-81
2022/07/02 05:44:39;;;;;;;5.90;3.50;;;16.70;99.90;;;;;;5089948;28;20404;-81
2022/07/02 05:47:24;;;;;;;3.57;3.30;;;16.20;99.90;;;;;;5090196;28;20409;-80
2022/07/02 05:50:09;;;;;;;10.97;3.60;;;16.40;99.90;;;;;;5088815;28;20431;-82
2022/07/02 05:52:53;;;;;;;3.77;3.57;;;16.50;99.90;;;;;;5088974;28;20389;-82
2022/07/02 05:55:39;;;;;;;6.87;3.67;;;16.70;99.90;;;;;;5088794;28;21030;-82
2022/07/02 05:58:24;;;;;;;3.97;3.40;;;16.50;99.90;;;;;;5087504;28;20440;-81
2022/07/02 06:01:08;;;;;;;3.83;3.23;;;16.80;99.90;;;;;;5082415;28;20468;-82
2022/07/02 06:03:52;;;;;;;6.83;6.13;;;16.50;99.90;;;;;;5068144;28;20398;-82
2022/07/02 06:09:32;;;;;;;8.57;3.30;;;16.90;99.90;;;;;;5068622;28;20417;-81
2022/07/02 06:12:16;;;;;;;4.30;3.47;;;17.10;99.90;;;;;;5067507;28;20382;-81
2022/07/02 06:15:01;;;;;;;7.47;3.30;;;16.80;99.90;;;;;;5068361;28;20394;-80
2022/07/02 06:17:47;;;;;;;4.00;3.40;;;16.70;99.90;;;;;;5067583;28;20445;-82
2022/07/02 06:20:32;;;;;;;3.13;2.90;;;17.10;99.90;;;;;;5067899;28;20413;-81
2022/07/02 06:23:21;;;;;;;3.00;2.80;;;17.10;99.90;;;;;;5066965;28;20381;-82
2022/07/02 06:26:06;;;;;;;2.90;2.70;;;17.10;99.90;;;;;;5066799;28;20893;-79
2022/07/02 06:28:50;;;;;;;4.20;2.60;;;17.00;99.90;;;;;;5052663;28;20381;-82
2022/07/02 06:31:36;;;;;;;3.00;2.73;;;17.30;99.90;;;;;;5067908;28;20393;-82
2022/07/02 06:34:20;;;;;;;5.87;3.40;;;17.40;99.90;;;;;;5067591;28;20381;-80
2022/07/02 06:37:05;;;;;;;3.80;2.70;;;17.30;99.90;;;;;;5053668;28;20506;-82
2022/07/02 06:39:50;;;;;;;2.80;2.60;;;17.50;99.90;;;;;;5075176;28;20402;-82
2022/07/02 06:42:35;;;;;;;3.10;2.80;;;17.50;99.90;;;;;;5073556;28;20930;-82
2022/07/02 06:45:19;;;;;;;2.73;2.53;;;17.60;99.90;;;;;;5069425;28;20401;-82
2022/07/02 06:48:04;;;;;;;2.60;2.30;;;17.70;99.90;;;;;;5069288;28;20452;-82
2022/07/02 06:50:50;;;;;;;2.93;2.70;;;17.60;99.90;;;;;;5068206;28;20437;-81
2022/07/02 06:53:34;;;;;;;5.20;3.60;;;17.90;99.90;;;;;;5069231;28;20393;-82
2022/07/02 06:56:18;;;;;;;3.30;2.60;;;17.90;99.90;;;;;;5067957;28;20797;-82
2022/07/02 06:59:05;;;;;;;3.20;2.73;;;18.10;99.90;;;;;;5066279;28;20437;-79
2022/07/02 07:01:49;;;;;;;3.13;2.80;;;18.10;99.90;;;;;;5056960;28;20526;-82
2022/07/02 07:04:35;;;;;;;3.03;2.77;;;18.10;99.90;;;;;;5065174;28;20458;-81
2022/07/02 07:07:25;;;;;;;3.00;2.70;;;18.30;99.90;;;;;;5065651;28;20402;-81
2022/07/02 07:10:09;;;;;;;3.33;2.43;;;18.40;99.90;;;;;;5065643;28;20414;-81
2022/07/02 07:12:53;;;;;;;5.13;3.40;;;18.50;99.90;;;;;;5064859;28;20452;-80
2022/07/02 07:15:38;;;;;;;4.40;3.03;;;18.40;99.90;;;;;;5063569;28;20420;-80
2022/07/02 07:18:22;;;;;;;4.10;2.90;;;18.40;99.90;;;;;;5065739;28;20437;-81
2022/07/02 07:21:06;;;;;;;2.90;2.40;;;18.40;99.90;;;;;;5065399;28;20445;-82
2022/07/02 07:23:51;;;;;;;3.83;2.43;;;18.30;99.90;;;;;;5065776;28;20400;-82
2022/07/02 07:26:36;;;;;;;3.00;2.17;;;18.50;99.90;;;;;;5066137;28;20551;-82
2022/07/02 07:29:21;;;;;;;2.40;2.20;;;18.80;99.90;;;;;;5066148;28;20410;-81
2022/07/02 07:32:06;;;;;;;3.70;2.80;;;18.80;99.90;;;;;;5072186;28;20424;-82
2022/07/02 07:34:50;;;;;;;4.17;2.43;;;18.90;99.90;;;;;;5073399;28;20388;-83
2022/07/02 07:37:36;;;;;;;2.10;2.00;;;18.70;99.90;;;;;;5088906;28;20436;-82
2022/07/02 07:40:22;;;;;;;2.27;2.07;;;18.90;99.90;;;;;;5090165;28;20380;-82
2022/07/02 07:43:06;;;;;;;3.70;2.33;;;19.10;99.90;;;;;;5092858;28;20393;-82
2022/07/02 07:45:51;;;;;;;2.70;2.23;;;19.10;99.90;;;;;;5094971;28;20440;-81
2022/07/02 07:48:36;;;;;;;5.53;2.37;;;19.20;99.90;;;;;;5077553;28;20388;-81
2022/07/02 07:51:20;;;;;;;3.07;1.80;;;19.50;99.90;;;;;;5091037;28;20480;-81
2022/07/02 07:54:05;;;;;;;2.60;1.93;;;19.50;99.90;;;;;;5090157;28;20488;-80
2022/07/02 07:56:50;;;;;;;2.07;1.87;;;19.40;99.90;;;;;;5082325;28;20481;-84
2022/07/02 07:59:34;;;;;;;2.63;2.43;;;19.70;99.90;;;;;;5081589;28;20416;-84
2022/07/02 08:02:19;;;;;;;2.53;1.70;;;20.00;99.90;;;;;;5064579;28;20465;-83
2022/07/02 08:05:04;;;;;;;2.20;2.00;;;20.10;99.90;;;;;;5061014;28;20453;-81
2022/07/02 08:07:49;;;;;;;1.80;1.70;;;20.20;99.90;;;;;;5062823;28;20863;-83
2022/07/02 08:10:34;;;;;;;2.63;1.93;;;20.30;99.90;;;;;;5060365;28;20970;-83
2022/07/02 08:13:18;;;;;;;1.80;1.70;;;20.40;99.90;;;;;;5060435;28;20457;-84
2022/07/02 08:16:04;;;;;;;5.17;2.90;;;20.40;99.90;;;;;;5069499;28;20386;-83
2022/07/02 08:18:49;;;;;;;3.80;1.80;;;20.40;99.90;;;;;;5064138;28;20456;-84
2022/07/02 08:21:33;;;;;;;1.97;1.77;;;20.10;99.90;;;;;;5066326;28;20433;-84
2022/07/02 08:24:17;;;;;;;1.97;1.80;;;20.40;99.90;;;;;;5066039;28;20401;-83
2022/07/02 08:27:02;;;;;;;4.50;2.70;;;20.60;99.90;;;;;;5073312;28;20405;-81
2022/07/02 08:29:47;;;;;;;3.87;2.10;;;20.50;99.90;;;;;;5040792;28;20385;-81
2022/07/02 08:32:31;;;;;;;2.63;1.97;;;20.30;99.90;;;;;;5067281;28;20451;-81
2022/07/02 08:35:16;;;;;;;2.00;1.67;;;20.50;99.90;;;;;;5068305;28;20377;-83
2022/07/02 08:38:01;;;;;;;2.37;2.07;;;20.70;99.90;;;;;;5068874;28;20489;-82
2022/07/02 08:40:48;;;;;;;2.10;1.80;;;20.70;99.90;;;;;;5067736;28;20445;-82
2022/07/02 08:43:34;;;;;;;2.23;2.03;;;20.80;99.90;;;;;;5069197;28;20466;-80
2022/07/02 08:46:20;;;;;;;1.80;1.70;;;21.10;99.90;;;;;;5068021;28;20462;-81
2022/07/02 08:49:05;;;;;;;3.83;2.73;;;21.20;99.90;;;;;;5069396;28;20463;-80
2022/07/02 08:52:06;;;;;;;1.60;1.50;;;21.20;99.90;;;;;;5065649;28;20397;-82
2022/07/02 08:54:52;;;;;;;1.40;1.30;;;21.10;99.90;;;;;;5065507;28;20482;-82
2022/07/02 08:57:39;;;;;;;3.07;1.80;;;21.10;99.90;;;;;;5065400;28;20449;-82
2022/07/02 09:00:24;;;;;;;2.90;2.10;;;20.90;99.90;;;;;;5065755;28;20398;-81
2022/07/02 09:03:11;;;;;;;2.10;1.90;;;21.20;99.90;;;;;;5051208;28;20477;-82
2022/07/02 09:05:55;;;;;;;1.87;1.50;;;21.10;99.90;;;;;;5066958;28;20397;-81
2022/07/02 09:08:41;;;;;;;1.97;1.87;;;21.20;99.90;;;;;;5051996;28;20417;-82
2022/07/02 09:11:29;;;;;;;2.40;1.67;;;21.20;99.90;;;;;;5051797;28;20466;-83
2022/07/02 09:14:15;;;;;;;2.70;1.63;;;21.40;99.90;;;;;;5066927;28;20386;-80
2022/07/02 09:17:01;;;;;;;1.90;1.77;;;21.30;99.90;;;;;;5067409;28;20988;-82
2022/07/02 09:19:45;;;;;;;4.10;1.70;;;21.40;99.90;;;;;;5066274;28;20386;-82
2022/07/02 09:22:33;;;;;;;2.43;2.23;;;21.30;99.90;;;;;;5064843;28;20436;-83
2022/07/02 09:25:20;;;;;;;1.50;1.40;;;21.60;99.90;;;;;;5066850;28;20386;-82
2022/07/02 09:28:24;;;;;;;1.87;1.60;;;21.50;99.90;;;;;;5044452;28;20418;-83
2022/07/02 09:31:08;;;;;;;4.07;1.93;;;21.60;99.90;;;;;;5044652;28;20403;-83
2022/07/02 09:33:53;;;;;;;1.70;1.50;;;21.70;99.90;;;;;;5045143;28;20402;-84
2022/07/02 09:36:40;;;;;;;1.53;1.43;;;21.90;99.90;;;;;;5030494;28;20395;-83
2022/07/02 09:39:28;;;;;;;1.67;1.57;;;21.70;99.90;;;;;;5050729;28;20911;-81
2022/07/02 09:42:28;;;;;;;1.53;1.43;;;22.10;99.90;;;;;;5049604;28;20457;-80
2022/07/02 09:45:14;;;;;;;6.47;1.47;;;22.30;99.90;;;;;;5051103;28;20513;-84
2022/07/02 09:48:03;;;;;;;2.40;1.70;;;22.00;99.90;;;;;;5050426;28;20545;-80
2022/07/02 09:50:48;;;;;;;2.90;2.13;;;22.30;99.90;;;;;;4991483;28;20461;-82
2022/07/02 09:53:33;;;;;;;1.67;1.57;;;22.20;99.90;;;;;;4988913;28;20425;-82
2022/07/02 09:56:20;;;;;;;1.70;1.60;;;22.10;99.90;;;;;;4983949;28;20969;-83
2022/07/02 09:59:13;;;;;;;1.70;1.60;;;22.00;99.90;;;;;;4993999;28;20517;-82
2022/07/02 10:01:57;;;;;;;1.50;1.40;;;22.40;99.90;;;;;;4995954;28;20488;-82
2022/07/02 10:04:45;;;;;;;2.50;2.20;;;22.30;99.90;;;;;;5003157;28;20473;-80
2022/07/02 10:07:30;;;;;;;1.80;1.70;;;22.60;99.90;;;;;;4997708;28;20432;-81
2022/07/02 10:10:15;;;;;;;2.10;1.90;;;22.70;99.90;;;;;;4998187;28;20415;-82
2022/07/02 10:12:59;;;;;;;1.77;1.67;;;22.80;99.90;;;;;;4984031;28;20408;-83
2022/07/02 10:16:01;;;;;;;1.63;1.53;;;22.90;99.90;;;;;;4984158;28;20789;-83
2022/07/02 10:18:46;;;;;;;7.23;1.60;;;22.50;99.90;;;;;;4998473;28;20506;-83
2022/07/02 10:21:31;;;;;;;2.63;1.40;;;22.50;99.90;;;;;;5029622;28;20480;-81
2022/07/02 10:24:15;;;;;;;1.80;1.70;;;23.10;99.90;;;;;;5045301;28;20390;-83
2022/07/02 10:27:01;;;;;;;1.97;1.87;;;23.50;99.90;;;;;;5031372;28;20417;-84
2022/07/02 10:29:46;;;;;;;3.70;1.70;;;23.70;99.90;;;;;;5060888;28;20388;-83
2022/07/02 10:32:40;;;;;;;1.40;1.30;;;23.60;99.90;;;;;;5045776;28;20397;-83
2022/07/02 10:35:26;;;;;;;2.03;1.93;;;23.40;99.90;;;;;;5045217;28;20405;-84
2022/07/02 10:38:11;;;;;;;2.50;1.80;;;22.80;99.90;;;;;;5044857;28;21032;-84
2022/07/02 10:40:55;;;;;;;3.17;1.67;;;23.00;99.90;;;;;;5045738;28;20398;-84
2022/07/02 10:43:39;;;;;;;1.50;1.40;;;23.00;99.90;;;;;;5061174;28;20386;-83
2022/07/02 10:46:26;;;;;;;1.70;1.60;;;23.10;99.90;;;;;;5067638;28;20382;-84
2022/07/02 10:49:11;;;;;;;2.13;1.93;;;23.20;99.90;;;;;;5058990;28;20423;-80
2022/07/02 10:51:57;;;;;;;1.50;1.40;;;23.80;99.90;;;;;;5033935;28;20526;-80
2022/07/02 10:54:44;;;;;;;3.30;1.60;;;24.00;99.90;;;;;;5036091;28;20434;-80
2022/07/02 10:57:29;;;;;;;3.23;1.77;;;23.80;99.90;;;;;;5042662;28;20466;-83
2022/07/02 11:00:25;;;;;;;3.53;3.23;;;23.60;99.50;;;;;;5042401;28;20390;-82
2022/07/02 11:03:29;;;;;;;1.50;1.40;;;23.50;99.90;;;;;;5039832;28;20403;-83
2022/07/02 11:06:30;;;;;;;1.70;1.60;;;23.50;99.70;;;;;;5040364;28;20690;-83
2022/07/02 11:09:15;;;;;;;1.70;1.60;;;24.20;99.90;;;;;;5040856;28;20394;-83
2022/07/02 11:12:00;;;;;;;4.50;2.00;;;24.30;99.90;;;;;;5028291;28;20430;-82
2022/07/02 11:14:54;;;;;;;1.83;1.73;;;24.10;97.80;;;;;;5042494;28;20923;-83
2022/07/02 11:17:39;;;;;;;2.17;1.43;;;24.20;97.70;;;;;;5027078;28;20437;-83
2022/07/02 11:20:26;;;;;;;6.00;1.97;;;24.20;95.10;;;;;;5043979;28;20443;-81
2022/07/02 11:23:10;;;;;;;1.60;1.50;;;24.50;95.00;;;;;;5051557;28;20402;-83
2022/07/02 11:25:55;;;;;;;3.20;2.10;;;24.50;91.10;;;;;;5050620;28;20394;-84
2022/07/02 11:28:39;;;;;;;1.80;1.70;;;24.80;93.70;;;;;;5028743;28;20475;-83
2022/07/02 11:31:23;;;;;;;1.97;1.87;;;24.70;91.60;;;;;;5042797;28;20458;-82
2022/07/02 11:34:08;;;;;;;1.50;1.40;;;24.50;95.10;;;;;;5043636;28;20901;-82
2022/07/02 11:36:53;;;;;;;1.93;1.83;;;25.00;96.10;;;;;;5042043;28;20411;-82
2022/07/02 11:39:38;;;;;;;1.70;1.60;;;24.50;91.70;;;;;;5045833;28;20494;-81
2022/07/02 11:42:36;;;;;;;1.70;1.60;;;24.70;91.00;;;;;;5044535;28;20398;-81
2022/07/02 11:45:20;;;;;;;1.80;1.70;;;25.20;92.80;;;;;;5045900;28;20403;-84
2022/07/02 11:48:05;;;;;;;3.60;1.60;;;25.60;91.50;;;;;;5043621;28;20401;-84
2022/07/02 11:50:59;;;;;;;4.07;1.60;;;25.50;90.10;;;;;;5043198;28;20386;-82
2022/07/02 11:53:53;;;;;;;2.57;1.70;;;25.20;88.10;;;;;;5043071;28;20406;-83
2022/07/02 11:56:38;;;;;;;2.00;1.90;;;25.20;87.10;;;;;;5040482;28;20761;-84
2022/07/02 11:59:25;;;;;;;2.13;2.00;;;25.20;86.20;;;;;;5040846;28;20403;-84
2022/07/02 12:02:09;;;;;;;1.87;1.77;;;25.20;91.10;;;;;;5041720;28;20565;-84
2022/07/02 12:04:54;;;;;;;2.70;1.90;;;25.10;86.70;;;;;;5042404;28;20490;-83
2022/07/02 12:07:41;;;;;;;1.80;1.70;;;25.60;92.00;;;;;;5042513;28;20426;-83
2022/07/02 12:10:26;;;;;;;1.80;1.70;;;25.60;88.00;;;;;;5027798;28;20418;-84
2022/07/02 12:13:11;;;;;;;2.33;2.23;;;25.80;83.60;;;;;;5042044;28;20429;-83
2022/07/02 12:15:56;;;;;;;9.40;1.90;;;25.40;84.10;;;;;;5042078;28;20465;-84
2022/07/02 12:18:41;;;;;;;2.20;2.10;;;25.50;86.50;;;;;;5026898;28;20473;-83
2022/07/02 12:21:34;;;;;;;1.90;1.80;;;26.10;83.30;;;;;;5041036;28;20395;-83
2022/07/02 12:24:28;;;;;;;1.70;1.50;;;26.10;84.60;;;;;;5042295;28;20382;-82
2022/07/02 12:27:13;;;;;;;1.73;1.63;;;25.80;85.30;;;;;;5027273;28;20402;-82
2022/07/02 12:29:57;;;;;;;2.00;1.80;;;25.70;82.10;;;;;;5041365;28;20454;-82
2022/07/02 12:32:50;;;;;;;2.40;2.20;;;25.60;79.60;;;;;;5013741;28;20464;-84
2022/07/02 12:35:34;;;;;;;1.80;1.70;;;26.10;80.60;;;;;;5043151;28;20386;-83
2022/07/02 12:38:19;;;;;;;1.80;1.70;;;26.60;79.80;;;;;;5042633;28;20918;-84
2022/07/02 12:41:04;;;;;;;3.87;1.90;;;26.40;78.80;;;;;;5027081;28;20406;-83
2022/07/02 12:43:53;;;;;;;3.10;2.00;;;26.10;85.20;;;;;;5042197;28;20397;-84
2022/07/02 12:46:47;;;;;;;2.10;1.90;;;26.00;78.70;;;;;;5042354;28;20453;-82
2022/07/02 12:49:32;;;;;;;1.67;1.57;;;27.50;77.30;;;;;;5026988;28;20434;-83
2022/07/02 12:52:16;;;;;;;2.13;1.93;;;26.70;76.40;;;;;;5028458;28;20536;-83
2022/07/02 12:55:01;;;;;;;1.60;1.50;;;26.40;76.20;;;;;;5044126;28;20479;-82
2022/07/02 12:57:46;;;;;;;2.43;1.67;;;27.10;74.80;;;;;;5028394;28;20445;-82
2022/07/02 13:00:32;;;;;;;1.80;1.70;;;27.70;75.90;;;;;;5045246;28;20390;-85
2022/07/02 13:03:18;;;;;;;1.70;1.60;;;27.50;72.80;;;;;;5063568;28;20187;-83
2022/07/02 13:06:04;;;;;;;1.50;1.40;;;27.40;70.60;;;;;;5063171;28;20179;-84
2022/07/02 13:08:49;;;;;;;2.37;1.80;;;27.10;69.10;;;;;;5062883;28;20385;-85
2022/07/02 13:11:34;;;;;;;1.70;1.60;;;27.70;67.40;;;;;;5021268;28;20166;-84
2022/07/02 13:14:18;;;;;;;1.93;1.83;;;27.80;68.10;;;;;;5071599;28;20201;-83
2022/07/02 13:17:03;;;;;;;2.10;1.90;;;27.20;72.30;;;;;;5050961;28;20288;-85
2022/07/02 13:19:48;;;;;;;2.03;1.87;;;27.30;70.10;;;;;;5025159;28;20186;-83
2022/07/02 13:22:52;;;;;;;1.90;1.70;;;27.10;66.00;;;;;;5038172;28;20620;-84
2022/07/02 13:25:37;;;;;;;1.97;1.60;;;27.10;65.80;;;;;;5017296;28;20478;-82
2022/07/02 13:28:21;;;;;;;2.30;1.80;;;28.10;65.20;;;;;;5003420;28;20922;-84
2022/07/02 13:31:06;;;;;;;1.80;1.70;;;28.60;67.00;;;;;;5010417;28;20751;-82
2022/07/02 13:33:50;;;;;;;1.77;1.67;;;27.70;64.60;;;;;;5012386;28;20384;-83
2022/07/02 13:36:35;;;;;;;2.43;2.33;;;27.70;64.30;;;;;;5026505;28;20163;-83
2022/07/02 13:39:19;;;;;;;1.83;1.60;;;27.90;66.80;;;;;;5031398;28;20222;-83
2022/07/02 13:42:04;;;;;;;1.70;1.60;;;27.90;66.30;;;;;;5004013;28;20257;-82
2022/07/02 13:44:48;;;;;;;2.40;2.13;;;27.90;67.30;;;;;;5019653;28;20203;-82
2022/07/02 13:47:33;;;;;;;1.83;1.30;;;28.40;63.50;;;;;;5032308;28;20210;-83
2022/07/02 13:50:17;;;;;;;1.50;1.40;;;27.70;63.30;;;;;;5023605;28;20202;-81
2022/07/02 13:53:02;;;;;;;2.22;1.77;;;28.20;64.70;;;;;;5006551;28;20298;-83
2022/07/02 13:55:46;;;;;;;4.20;2.17;;;28.30;60.70;;;;;;5028774;28;20724;-84
2022/07/02 13:58:30;;;;;;;2.00;1.60;;;28.00;62.60;;;;;;5044358;28;20194;-84
2022/07/02 14:01:15;;;;;;;1.60;1.50;;;28.70;63.50;;;;;;5059041;28;20763;-81
2022/07/02 14:04:00;;;;;;;2.25;2.15;;;28.80;62.10;;;;;;5059513;28;20230;-84
2022/07/02 14:06:44;;;;;;;4.05;1.80;;;27.60;65.00;;;;;;5059531;28;20178;-82
2022/07/02 14:09:31;;;;;;;2.53;1.77;;;27.60;60.50;;;;;;5058828;28;20221;-83
2022/07/02 14:12:15;;;;;;;1.87;1.77;;;27.30;60.90;;;;;;5060703;28;20449;-83
2022/07/02 14:15:05;;;;;;;1.97;1.87;;;27.40;62.40;;;;;;5060507;28;20962;-83
2022/07/02 14:17:50;;;;;;;2.60;1.60;;;27.10;61.20;;;;;;5047545;28;20443;-83
2022/07/02 14:20:35;;;;;;;3.37;3.00;;;27.20;61.00;;;;;;5061326;28;20429;-83
2022/07/02 14:23:19;;;;;;;1.40;1.30;;;27.70;64.20;;;;;;5046063;28;20472;-82
2022/07/02 14:26:04;;;;;;;1.77;1.63;;;28.80;64.80;;;;;;5062722;28;20413;-84